Latest Weather Observations for Gatton

IDQ60801

Issued at 9:02 pm EST Saturday 25 April 2015 (issued every 30 minutes, with the page automatically refreshed every 10 minutes)

About weather observations | Map of weather stations | Latest weather observations for QLD | Other Formats
Station Details ID: 040082 Name: UNIVERSITY OF QUEENSLAND GATTON Lat: -27.54 Lon: 152.34 Height: 89.0 m
Data from the previous 72 hours. | See also: Recent months at Gatton
Date/Time
EST
Temp
°C
App
Temp
°C
Dew
Point
Rel
Hum
%
Delta-T
°C
Wind Press
QNH
hPa
Press
MSL
hPa
Rain
since 9 am
mm
Dir
 
Spd
km/h
Gust
km/h
Spd
kts
Gust
kts
25/09:00pm 18.3 16.0 9.1 55 4.8 W 11 15 6 8 - - 0.0
25/08:30pm 17.8 16.0 9.4 58 4.4 W 9 13 5 7 - - 0.0
25/08:00pm 17.5 15.8 9.7 60 4.1 WSW 9 11 5 6 - - 0.0
25/07:30pm 18.3 17.4 10.7 61 4.1 W 6 7 3 4 - - 0.0
25/07:00pm 19.9 19.1 11.1 57 4.8 W 6 7 3 4 - - 0.0
25/06:30pm 20.8 21.2 11.4 55 5.2 CALM 0 0 0 0 - - 0.0
25/06:00pm 23.9 23.2 11.9 47 6.8 N 7 9 4 5 - - 0.0
25/05:30pm 23.7 22.5 11.7 47 6.8 N 9 13 5 7 - - 0.0
25/05:00pm 25.7 23.9 12.2 43 7.8 NNE 13 17 7 9 - - 0.0
25/04:30pm 27.1 24.6 11.2 37 9.1 NNE 15 20 8 11 - - 0.0
25/04:00pm 27.9 25.5 11.5 36 9.4 NNE 15 20 8 11 - - 0.0
25/03:30pm 28.3 26.9 12.2 37 9.4 NNE 11 15 6 8 - - 0.0
25/03:00pm 28.2 27.3 11.3 35 9.7 NNE 7 13 4 7 - - 0.0
25/02:30pm 29.7 26.4 6.4 23 12.4 WNW 13 17 7 9 - - 0.0
25/02:00pm 29.6 26.4 8.6 27 11.6 NW 15 22 8 12 - - 0.0
25/01:30pm 29.4 26.3 7.3 25 12.0 WNW 13 22 7 12 - - 0.0
25/01:00pm 28.3 23.8 7.0 26 11.4 W 20 28 11 15 - - 0.0
25/12:30pm 28.3 23.8 8.6 29 10.8 N 22 28 12 15 - - 0.0
25/12:00pm 28.0 25.8 10.7 34 9.8 W 13 20 7 11 - - 0.0
25/11:30am 26.9 25.4 10.6 36 9.2 N 9 13 5 7 - - 0.0
25/11:00am 26.0 25.1 10.6 38 8.7 NNE 6 11 3 6 - - 0.0
25/10:30am 24.3 23.8 11.9 45 7.1 NW 6 9 3 5 - - 0.0
25/10:00am 23.6 22.8 11.0 45 7.0 NNW 6 11 3 6 - - 0.0
25/09:30am 21.1 20.1 10.9 52 5.6 W 7 9 4 5 - - 0.0
25/09:00am 19.6 18.8 11.6 60 4.4 NW 7 9 4 5 - - 0.0
25/08:30am 17.3 15.7 10.2 63 3.8 W 9 11 5 6 - - 0.0
25/08:00am 15.5 14.0 10.7 73 2.6 W 9 13 5 7 - - 0.0
25/07:30am 13.8 12.1 10.0 78 2.0 W 9 13 5 7 - - 0.0
25/07:00am 11.7 10.4 9.8 88 1.0 W 7 9 4 5 - - 0.0
25/06:30am 9.8 9.4 8.1 89 0.8 CALM 0 0 0 0 - - 0.0
25/06:00am 10.1 8.5 8.2 88 0.9 WSW 6 7 3 4 - - 0.0
25/05:30am 10.3 8.7 8.1 86 1.1 SW 6 7 3 4 - - 0.0
25/05:00am 11.4 9.6 9.3 87 1.1 WSW 9 13 5 7 - - 0.0
25/04:30am 11.8 9.9 9.2 84 1.3 WSW 9 11 5 6 - - 0.0
25/04:00am 12.4 11.1 9.8 84 1.3 W 7 9 4 5 - - 0.0
25/03:30am 12.7 11.1 10.1 84 1.3 W 9 13 5 7 - - 0.0
25/03:00am 12.2 10.9 9.9 86 1.2 W 7 9 4 5 - - 0.0
25/02:30am 12.9 11.6 10.1 83 1.4 WNW 7 9 4 5 - - 0.0
25/02:00am 12.9 11.3 10.3 84 1.4 W 9 13 5 7 - - 0.0
25/01:30am 13.3 11.7 10.1 81 1.7 W 9 11 5 6 - - 0.0
25/01:00am 13.8 11.5 10.6 81 1.7 W 13 17 7 9 - - 0.0
25/12:30am 14.1 12.6 10.7 80 1.8 W 9 13 5 7 - - 0.0
25/12:00am 14.5 12.7 10.7 78 2.0 WSW 11 15 6 8 - - 0.0
 
Date/Time
EST
Temp
°C
App
Temp
°C
Dew
Point
Rel
Hum
%
Delta-T
°C
Wind Press
QNH
hPa
Press
MSL
hPa
Rain
since 9 am
mm
Dir
 
Spd
km/h
Gust
km/h
Spd
kts
Gust
kts
24/11:30pm 15.0 13.2 10.8 76 2.2 W 11 15 6 8 - - 0.0
24/11:00pm 15.4 12.9 11.0 75 2.4 WSW 15 19 8 10 - - 0.0
24/10:30pm 15.8 13.7 11.0 73 2.6 W 13 15 7 8 - - 0.0
24/10:00pm 16.3 13.9 11.5 73 2.6 W 15 17 8 9 - - 0.0
24/09:30pm 16.6 14.9 11.1 70 3.0 W 11 15 6 8 - - 0.0
24/09:00pm 17.1 15.8 11.4 69 3.1 W 9 13 5 7 - - 0.0
24/08:30pm 17.6 16.8 11.8 69 3.2 WSW 7 9 4 5 - - 0.0
24/08:00pm 16.9 16.3 11.8 72 2.8 SW 6 9 3 5 - - 0.0
24/07:30pm 17.3 17.8 11.6 69 3.1 CALM 0 0 0 0 - - 0.0
24/07:00pm 18.4 18.2 11.9 66 3.6 WNW 4 6 2 3 - - 0.0
24/06:30pm 18.7 17.7 10.3 58 4.5 WNW 6 7 3 4 - - 0.0
24/06:00pm 20.5 19.4 10.6 53 5.4 WNW 7 9 4 5 - - 0.0
24/05:30pm 24.7 23.9 10.9 42 7.7 W 6 9 3 5 - - 0.0
24/05:00pm 27.2 26.3 10.8 36 9.3 W 6 9 3 5 - - 0.0
24/04:30pm 27.9 26.4 10.6 34 9.8 WSW 9 15 5 8 - - 0.0
24/04:00pm 27.6 25.6 10.3 34 9.7 SW 11 19 6 10 - - 0.0
24/03:30pm 27.4 25.8 11.4 37 9.2 W 11 15 6 8 - - 0.0
24/03:00pm 27.3 24.6 10.5 35 9.5 W 15 20 8 11 - - 0.0
24/02:30pm 27.6 25.4 10.8 35 9.5 WSW 13 22 7 12 - - 0.0
24/02:00pm 26.9 25.0 11.8 39 8.7 WNW 13 20 7 11 - - 0.0
24/01:30pm 28.2 26.9 12.5 37 9.2 W 11 24 6 13 - - 0.0
24/01:00pm 27.5 25.5 12.7 40 8.7 W 15 22 8 12 - - 0.0
24/12:30pm 27.1 25.9 12.7 41 8.4 W 11 19 6 10 - - 0.0
24/12:00pm 25.9 24.2 12.4 43 7.8 WNW 13 19 7 10 - - 0.0
24/11:30am 25.5 24.1 13.4 47 7.1 W 13 19 7 10 - - 0.0
24/11:00am 24.9 23.9 13.5 49 6.7 W 11 19 6 10 - - 0.0
24/10:30am 23.7 23.5 13.6 53 5.9 WNW 7 13 4 7 - - 0.0
24/10:00am 22.0 22.2 14.6 63 4.4 N 7 9 4 5 - - 0.0
24/09:30am 19.5 19.2 13.2 67 3.6 N 7 9 4 5 - - 0.0
24/09:00am 17.4 18.4 13.3 77 2.3 CALM 0 0 0 0 - - 0.0
24/08:30am 16.6 17.6 13.1 80 2.0 CALM 0 7 0 4 - - 0.0
24/08:00am 15.5 15.7 13.2 86 1.3 SSW 4 7 2 4 - - 0.0
24/07:30am 14.4 15.3 13.0 91 0.8 CALM 0 0 0 0 - - 0.0
24/07:00am 13.5 14.3 12.4 93 0.6 CALM 0 0 0 0 - - 0.0
24/06:30am 12.6 13.0 11.2 91 0.7 CALM 0 0 0 0 - - 0.0
24/06:00am 12.5 12.8 10.9 90 0.8 CALM 0 0 0 0 - - 0.0
24/05:30am 12.5 12.9 11.1 91 0.7 CALM 0 0 0 0 - - 0.0
24/05:00am 12.7 13.1 11.1 90 0.8 CALM 0 2 0 1 - - 0.0
24/04:30am 13.2 12.5 11.3 88 1.0 SW 6 7 3 4 - - 0.0
24/04:00am 13.3 12.4 11.2 87 1.1 W 7 9 4 5 - - 0.0
24/03:30am 13.8 13.1 11.3 85 1.3 W 6 9 3 5 - - 0.0
24/03:00am 14.2 13.5 11.9 86 1.2 WNW 7 11 4 6 - - 0.0
24/02:30am 14.0 13.8 11.9 87 1.1 WNW 4 9 2 5 - - 0.0
24/02:00am 14.0 13.8 11.7 86 1.2 WNW 4 9 2 5 - - 0.0
24/01:30am 14.1 13.5 11.8 86 1.2 SW 6 7 3 4 - - 0.0
24/01:00am 14.3 14.4 11.6 84 1.5 WSW 2 7 1 4 - - 0.0
24/12:30am 14.5 13.9 11.8 84 1.5 SW 6 7 3 4 - - 0.0
24/12:00am 14.4 13.2 11.7 84 1.5 W 9 13 5 7 - - 0.0
 
Date/Time
EST
Temp
°C
App
Temp
°C
Dew
Point
Rel
Hum
%
Delta-T
°C
Wind Press
QNH
hPa
Press
MSL
hPa
Rain
since 9 am
mm
Dir
 
Spd
km/h
Gust
km/h
Spd
kts
Gust
kts
23/11:30pm 14.6 14.0 11.6 82 1.6 W 6 7 3 4 - - 0.0
23/11:00pm 15.1 14.4 12.1 82 1.6 W 7 11 4 6 - - 0.0
23/10:30pm 15.3 14.3 12.2 82 1.7 W 9 11 5 6 - - 0.0
23/10:00pm 15.0 14.3 12.0 82 1.6 W 7 11 4 6 - - 0.0
23/09:30pm 14.4 13.6 11.6 83 1.5 W 7 11 4 6 - - 0.0
23/09:00pm 14.5 14.0 12.2 86 1.3 SSE 6 7 3 4 - - 0.0
23/08:30pm 14.0 13.1 10.6 80 1.8 SSW 6 7 3 4 - - 0.0
23/08:00pm 14.5 14.0 10.7 78 2.0 WSW 4 7 2 4 - - 0.0
23/07:30pm 15.7 16.2 11.7 77 2.2 CALM 0 0 0 0 - - 0.0
23/07:00pm 16.1 15.2 10.8 71 2.8 N 6 7 3 4 - - 0.0
23/06:30pm 17.8 17.1 11.4 66 3.5 N 6 7 3 4 - - 0.0
23/06:00pm 19.2 17.8 12.2 64 3.9 N 11 13 6 7 - - 0.0
23/05:30pm 21.6 20.2 12.2 55 5.3 NE 11 15 6 8 - - 0.0
23/05:00pm 23.5 21.9 11.5 47 6.8 NE 11 15 6 8 - - 0.0
23/04:30pm 24.7 23.5 11.6 44 7.4 NE 9 20 5 11 - - 0.0
23/04:00pm 25.6 24.9 11.4 41 8.1 N 6 13 3 7 - - 0.0
23/03:30pm 25.4 24.2 11.6 42 7.9 NE 9 11 5 6 - - 0.0
23/03:00pm 24.7 23.2 10.6 41 7.9 NNE 9 15 5 8 - - 0.0
23/02:30pm 24.8 23.0 10.7 41 7.9 NNE 11 17 6 9 - - 0.0
23/02:00pm 24.9 24.1 11.8 44 7.5 ENE 7 11 4 6 - - 0.0
23/01:30pm 23.7 21.7 11.4 46 6.9 E 13 20 7 11 - - 0.0
23/01:00pm 23.8 20.8 11.8 47 6.8 E 19 24 10 13 - - 0.0
23/12:30pm 23.9 22.5 12.2 48 6.7 NE 11 19 6 10 - - 0.0
23/12:00pm 24.1 23.0 11.8 46 7.0 N 9 15 5 8 - - 0.0
23/11:30am 22.9 22.0 10.7 46 6.8 N 6 15 3 8 - - 0.0
23/11:00am 23.0 21.7 11.4 48 6.5 WNW 9 15 5 8 - - 0.0
23/10:30am 22.4 21.4 10.9 48 6.4 WNW 7 13 4 7 - - 0.0
23/10:00am 21.1 18.7 11.4 54 5.4 WSW 15 20 8 11 - - 0.0
23/09:30am 20.1 17.7 11.3 57 4.9 WSW 15 22 8 12 - - 0.0
23/09:00am 18.8 16.4 11.4 62 4.1 W 15 19 8 10 - - 0.2
23/08:30am 17.4 15.7 11.2 67 3.4 W 11 17 6 9 - - 0.2
23/08:00am 15.3 13.3 10.3 72 2.6 W 11 15 6 8 - - 0.2
23/07:30am 14.0 11.2 10.0 77 2.1 W 15 20 8 11 - - 0.2
23/07:00am 12.7 10.6 9.7 82 1.5 WSW 11 15 6 8 - - 0.2
23/06:30am 11.4 8.7 8.8 84 1.3 WSW 13 19 7 10 - - 0.2
23/06:00am 11.5 8.8 8.9 84 1.3 WSW 13 19 7 10 - - 0.2
23/05:30am 11.0 8.6 8.6 85 1.2 WSW 11 17 6 9 - - 0.2
23/05:00am 10.8 8.4 8.6 86 1.1 WSW 11 15 6 8 - - 0.2
23/04:30am 10.8 8.0 8.6 86 1.1 W 13 15 7 8 - - 0.2
23/04:00am 10.6 7.8 8.7 88 0.9 W 13 17 7 9 - - 0.2
23/03:30am 10.5 8.4 8.4 87 1.0 W 9 13 5 7 - - 0.2
23/03:00am 11.0 8.9 8.4 84 1.3 W 9 11 5 6 - - 0.2
23/02:30am 11.7 9.8 8.9 83 1.4 WSW 9 11 5 6 - - 0.2
23/02:00am 11.5 9.8 8.4 81 1.5 WSW 7 9 4 5 - - 0.2
23/01:30am 12.5 11.0 9.1 80 1.7 SW 7 11 4 6 - - 0.2
23/01:00am 12.5 10.2 9.1 80 1.7 WSW 11 15 6 8 - - 0.2
23/12:30am 11.8 9.9 9.0 83 1.4 W 9 13 5 7 - - 0.2
23/12:00am 12.0 10.0 8.8 81 1.6 WSW 9 13 5 7 - - 0.2
 
Date/Time
EST
Temp
°C
App
Temp
°C
Dew
Point
Rel
Hum
%
Delta-T
°C
Wind Press
QNH
hPa
Press
MSL
hPa
Rain
since 9 am
mm
Dir
 
Spd
km/h
Gust
km/h
Spd
kts
Gust
kts
22/11:30pm 12.5 10.6 9.0 79 1.8 W 9 11 5 6 - - 0.2
22/11:00pm 13.1 10.9 9.2 77 2.0 W 11 15 6 8 - - 0.2
22/10:30pm 13.6 11.0 9.3 75 2.2 W 13 17 7 9 - - 0.2
22/10:00pm 14.0 11.3 9.0 72 2.5 W 13 20 7 11 - - 0.2
22/09:30pm 14.5 11.9 9.3 71 2.7 W 13 17 7 9 - - 0.2

Other Formats:

Comma delimited format used in spreadsheet applications
http://www.bom.gov.au/fwo/IDQ60801/IDQ60801.94562.axf

JavaScript Object Notation format (JSON) in row-major order
http://www.bom.gov.au/fwo/IDQ60801/IDQ60801.94562.json